sensor_id;sensor_type;location;lat;lon;timestamp;P1;durP1;ratioP1;P2;durP2;ratioP2
26965;SDS011;14522;52.068;4.414;2022-10-16T00:02:10;3.38;;;0.75;;
26965;SDS011;14522;52.068;4.414;2022-10-16T00:04:37;2.47;;;0.47;;
26965;SDS011;14522;52.068;4.414;2022-10-16T00:07:03;4.72;;;0.77;;
26965;SDS011;14522;52.068;4.414;2022-10-16T00:09:29;1.42;;;0.77;;
26965;SDS011;14522;52.068;4.414;2022-10-16T00:11:56;2.85;;;0.85;;
26965;SDS011;14522;52.068;4.414;2022-10-16T00:14:22;2.60;;;0.60;;
26965;SDS011;14522;52.068;4.414;2022-10-16T00:16:48;2.35;;;0.68;;
26965;SDS011;14522;52.068;4.414;2022-10-16T00:19:15;1.73;;;0.82;;
26965;SDS011;14522;52.068;4.414;2022-10-16T00:21:41;5.20;;;1.20;;
26965;SDS011;14522;52.068;4.414;2022-10-16T00:24:08;4.22;;;0.77;;
26965;SDS011;14522;52.068;4.414;2022-10-16T00:26:35;1.67;;;0.63;;
26965;SDS011;14522;52.068;4.414;2022-10-16T00:29:02;3.15;;;0.63;;
26965;SDS011;14522;52.068;4.414;2022-10-16T00:31:29;2.95;;;0.73;;
26965;SDS011;14522;52.068;4.414;2022-10-16T00:33:55;2.45;;;0.60;;
26965;SDS011;14522;52.068;4.414;2022-10-16T00:36:23;2.20;;;0.60;;
26965;SDS011;14522;52.068;4.414;2022-10-16T00:38:50;2.00;;;0.63;;
26965;SDS011;14522;52.068;4.414;2022-10-16T00:41:19;0.82;;;0.40;;
26965;SDS011;14522;52.068;4.414;2022-10-16T00:43:46;2.50;;;0.38;;
26965;SDS011;14522;52.068;4.414;2022-10-16T00:46:15;3.08;;;0.52;;
26965;SDS011;14522;52.068;4.414;2022-10-16T00:48:43;3.17;;;0.85;;
26965;SDS011;14522;52.068;4.414;2022-10-16T00:51:11;2.13;;;0.40;;
26965;SDS011;14522;52.068;4.414;2022-10-16T00:53:37;1.65;;;0.50;;
26965;SDS011;14522;52.068;4.414;2022-10-16T00:56:04;2.38;;;0.45;;
26965;SDS011;14522;52.068;4.414;2022-10-16T00:58:30;6.40;;;0.60;;
26965;SDS011;14522;52.068;4.414;2022-10-16T01:00:57;5.43;;;0.57;;
26965;SDS011;14522;52.068;4.414;2022-10-16T01:03:25;1.60;;;0.50;;
26965;SDS011;14522;52.068;4.414;2022-10-16T01:05:55;1.15;;;0.50;;
26965;SDS011;14522;52.068;4.414;2022-10-16T01:08:28;0.93;;;0.60;;
26965;SDS011;14522;52.068;4.414;2022-10-16T01:11:00;1.33;;;0.40;;
26965;SDS011;14522;52.068;4.414;2022-10-16T01:13:33;4.47;;;0.70;;
26965;SDS011;14522;52.068;4.414;2022-10-16T01:16:13;3.10;;;0.70;;
26965;SDS011;14522;52.068;4.414;2022-10-16T01:18:52;1.38;;;0.60;;
26965;SDS011;14522;52.068;4.414;2022-10-16T01:21:31;2.25;;;0.52;;
26965;SDS011;14522;52.068;4.414;2022-10-16T01:29:16;1.40;;;0.63;;
26965;SDS011;14522;52.068;4.414;2022-10-16T01:31:50;1.88;;;0.70;;
26965;SDS011;14522;52.068;4.414;2022-10-16T01:34:25;2.15;;;0.73;;
26965;SDS011;14522;52.068;4.414;2022-10-16T01:37:00;3.38;;;0.65;;
26965;SDS011;14522;52.068;4.414;2022-10-16T01:39:29;2.30;;;1.08;;
26965;SDS011;14522;52.068;4.414;2022-10-16T01:42:01;1.80;;;0.60;;
26965;SDS011;14522;52.068;4.414;2022-10-16T01:44:30;1.70;;;0.55;;
26965;SDS011;14522;52.068;4.414;2022-10-16T01:46:57;3.70;;;0.80;;
26965;SDS011;14522;52.068;4.414;2022-10-16T01:49:25;3.47;;;0.60;;
26965;SDS011;14522;52.068;4.414;2022-10-16T01:51:53;1.13;;;0.60;;
26965;SDS011;14522;52.068;4.414;2022-10-16T01:54:22;3.55;;;0.75;;
26965;SDS011;14522;52.068;4.414;2022-10-16T01:56:49;1.20;;;0.47;;
26965;SDS011;14522;52.068;4.414;2022-10-16T01:59:17;2.50;;;0.70;;
26965;SDS011;14522;52.068;4.414;2022-10-16T02:01:45;2.67;;;0.52;;
26965;SDS011;14522;52.068;4.414;2022-10-16T02:06:42;2.58;;;0.90;;
26965;SDS011;14522;52.068;4.414;2022-10-16T02:09:09;7.18;;;1.00;;
26965;SDS011;14522;52.068;4.414;2022-10-16T02:11:35;2.83;;;0.50;;
26965;SDS011;14522;52.068;4.414;2022-10-16T02:14:03;1.10;;;0.60;;
26965;SDS011;14522;52.068;4.414;2022-10-16T02:16:37;1.13;;;0.75;;
26965;SDS011;14522;52.068;4.414;2022-10-16T02:19:04;2.28;;;0.60;;
26965;SDS011;14522;52.068;4.414;2022-10-16T02:22:17;1.08;;;0.60;;
26965;SDS011;14522;52.068;4.414;2022-10-16T02:24:20;1.88;;;0.60;;
26965;SDS011;14522;52.068;4.414;2022-10-16T02:29:29;2.40;;;1.17;;
26965;SDS011;14522;52.068;4.414;2022-10-16T02:31:57;1.65;;;0.70;;
26965;SDS011;14522;52.068;4.414;2022-10-16T02:34:24;1.35;;;0.68;;
26965;SDS011;14522;52.068;4.414;2022-10-16T02:36:52;2.17;;;0.60;;
26965;SDS011;14522;52.068;4.414;2022-10-16T02:39:19;2.45;;;0.80;;
26965;SDS011;14522;52.068;4.414;2022-10-16T02:41:46;1.35;;;0.68;;
26965;SDS011;14522;52.068;4.414;2022-10-16T02:44:12;5.55;;;0.98;;
26965;SDS011;14522;52.068;4.414;2022-10-16T02:46:38;1.92;;;0.80;;
26965;SDS011;14522;52.068;4.414;2022-10-16T02:49:05;4.20;;;0.70;;
26965;SDS011;14522;52.068;4.414;2022-10-16T02:51:31;2.15;;;0.65;;
26965;SDS011;14522;52.068;4.414;2022-10-16T02:53:57;3.92;;;0.77;;
26965;SDS011;14522;52.068;4.414;2022-10-16T02:56:24;2.70;;;1.15;;
26965;SDS011;14522;52.068;4.414;2022-10-16T02:58:50;1.88;;;0.70;;
26965;SDS011;14522;52.068;4.414;2022-10-16T03:01:16;2.25;;;1.08;;
26965;SDS011;14522;52.068;4.414;2022-10-16T03:03:43;2.78;;;0.75;;
26965;SDS011;14522;52.068;4.414;2022-10-16T03:06:09;3.55;;;1.00;;
26965;SDS011;14522;52.068;4.414;2022-10-16T03:08:36;6.80;;;0.90;;
26965;SDS011;14522;52.068;4.414;2022-10-16T03:11:02;3.92;;;0.70;;
26965;SDS011;14522;52.068;4.414;2022-10-16T03:13:28;3.47;;;0.70;;
26965;SDS011;14522;52.068;4.414;2022-10-16T03:15:54;3.22;;;0.70;;
26965;SDS011;14522;52.068;4.414;2022-10-16T03:18:21;1.25;;;0.70;;
26965;SDS011;14522;52.068;4.414;2022-10-16T03:20:47;3.78;;;0.90;;
26965;SDS011;14522;52.068;4.414;2022-10-16T03:23:14;2.75;;;0.63;;
26965;SDS011;14522;52.068;4.414;2022-10-16T03:25:40;1.92;;;0.77;;
26965;SDS011;14522;52.068;4.414;2022-10-16T03:28:06;4.28;;;0.57;;
26965;SDS011;14522;52.068;4.414;2022-10-16T03:30:33;2.65;;;0.82;;
26965;SDS011;14522;52.068;4.414;2022-10-16T03:32:59;3.65;;;0.80;;
26965;SDS011;14522;52.068;4.414;2022-10-16T03:35:25;4.18;;;0.73;;
26965;SDS011;14522;52.068;4.414;2022-10-16T03:37:52;3.05;;;0.88;;
26965;SDS011;14522;52.068;4.414;2022-10-16T03:40:19;3.17;;;0.88;;
26965;SDS011;14522;52.068;4.414;2022-10-16T03:42:45;4.82;;;1.10;;
26965;SDS011;14522;52.068;4.414;2022-10-16T03:45:11;5.38;;;0.75;;
26965;SDS011;14522;52.068;4.414;2022-10-16T03:47:38;2.47;;;0.60;;
26965;SDS011;14522;52.068;4.414;2022-10-16T03:50:04;3.67;;;0.55;;
26965;SDS011;14522;52.068;4.414;2022-10-16T03:52:31;6.53;;;0.93;;
26965;SDS011;14522;52.068;4.414;2022-10-16T03:54:58;2.08;;;0.60;;
26965;SDS011;14522;52.068;4.414;2022-10-16T03:57:24;2.47;;;0.68;;
26965;SDS011;14522;52.068;4.414;2022-10-16T03:59:51;2.63;;;0.63;;
26965;SDS011;14522;52.068;4.414;2022-10-16T04:02:17;5.70;;;0.68;;
26965;SDS011;14522;52.068;4.414;2022-10-16T04:04:44;5.72;;;0.90;;
26965;SDS011;14522;52.068;4.414;2022-10-16T04:07:10;2.70;;;0.70;;
26965;SDS011;14522;52.068;4.414;2022-10-16T04:09:36;3.00;;;0.60;;
26965;SDS011;14522;52.068;4.414;2022-10-16T04:12:03;3.40;;;0.50;;
26965;SDS011;14522;52.068;4.414;2022-10-16T04:14:29;4.32;;;0.70;;
26965;SDS011;14522;52.068;4.414;2022-10-16T04:16:55;4.40;;;0.65;;
26965;SDS011;14522;52.068;4.414;2022-10-16T04:19:22;3.13;;;0.60;;
26965;SDS011;14522;52.068;4.414;2022-10-16T04:21:48;2.65;;;0.63;;
26965;SDS011;14522;52.068;4.414;2022-10-16T04:24:14;3.42;;;0.70;;
26965;SDS011;14522;52.068;4.414;2022-10-16T04:26:41;2.50;;;0.77;;
26965;SDS011;14522;52.068;4.414;2022-10-16T04:29:07;2.83;;;0.57;;
26965;SDS011;14522;52.068;4.414;2022-10-16T04:31:33;2.05;;;0.73;;
26965;SDS011;14522;52.068;4.414;2022-10-16T04:34:00;3.50;;;0.70;;
26965;SDS011;14522;52.068;4.414;2022-10-16T04:36:26;4.07;;;0.70;;
26965;SDS011;14522;52.068;4.414;2022-10-16T04:38:54;2.72;;;0.85;;
26965;SDS011;14522;52.068;4.414;2022-10-16T04:41:21;2.55;;;0.95;;
26965;SDS011;14522;52.068;4.414;2022-10-16T04:43:47;2.70;;;0.93;;
26965;SDS011;14522;52.068;4.414;2022-10-16T04:46:13;2.28;;;0.55;;
26965;SDS011;14522;52.068;4.414;2022-10-16T04:48:40;3.38;;;0.73;;
26965;SDS011;14522;52.068;4.414;2022-10-16T04:51:06;3.67;;;0.75;;
26965;SDS011;14522;52.068;4.414;2022-10-16T04:53:32;6.65;;;0.80;;
26965;SDS011;14522;52.068;4.414;2022-10-16T04:55:59;1.50;;;0.52;;
26965;SDS011;14522;52.068;4.414;2022-10-16T04:58:25;4.93;;;0.63;;
26965;SDS011;14522;52.068;4.414;2022-10-16T05:00:52;3.33;;;0.88;;
26965;SDS011;14522;52.068;4.414;2022-10-16T05:03:18;5.38;;;0.80;;
26965;SDS011;14522;52.068;4.414;2022-10-16T05:05:45;8.52;;;1.20;;
26965;SDS011;14522;52.068;4.414;2022-10-16T05:08:12;5.13;;;1.15;;
26965;SDS011;14522;52.068;4.414;2022-10-16T05:10:40;1.45;;;0.52;;
26965;SDS011;14522;52.068;4.414;2022-10-16T05:13:07;3.47;;;0.50;;
26965;SDS011;14522;52.068;4.414;2022-10-16T05:15:33;2.08;;;0.80;;
26965;SDS011;14522;52.068;4.414;2022-10-16T05:18:00;5.85;;;0.82;;
26965;SDS011;14522;52.068;4.414;2022-10-16T05:20:26;3.15;;;1.00;;
26965;SDS011;14522;52.068;4.414;2022-10-16T05:22:53;3.17;;;0.73;;
26965;SDS011;14522;52.068;4.414;2022-10-16T05:25:19;5.10;;;1.10;;
26965;SDS011;14522;52.068;4.414;2022-10-16T05:27:49;1.63;;;0.60;;
26965;SDS011;14522;52.068;4.414;2022-10-16T05:30:16;3.65;;;0.75;;
26965;SDS011;14522;52.068;4.414;2022-10-16T05:32:46;3.30;;;0.75;;
26965;SDS011;14522;52.068;4.414;2022-10-16T05:35:13;4.90;;;0.93;;
26965;SDS011;14522;52.068;4.414;2022-10-16T05:37:39;4.97;;;0.93;;
26965;SDS011;14522;52.068;4.414;2022-10-16T05:40:06;2.70;;;0.80;;
26965;SDS011;14522;52.068;4.414;2022-10-16T05:42:32;6.10;;;1.25;;
26965;SDS011;14522;52.068;4.414;2022-10-16T05:44:59;3.17;;;0.77;;
26965;SDS011;14522;52.068;4.414;2022-10-16T05:47:25;7.32;;;1.10;;
26965;SDS011;14522;52.068;4.414;2022-10-16T05:49:52;3.17;;;0.90;;
26965;SDS011;14522;52.068;4.414;2022-10-16T05:52:19;4.03;;;1.20;;
26965;SDS011;14522;52.068;4.414;2022-10-16T05:54:45;2.53;;;0.85;;
26965;SDS011;14522;52.068;4.414;2022-10-16T05:57:11;1.98;;;0.70;;
26965;SDS011;14522;52.068;4.414;2022-10-16T05:59:38;2.28;;;0.70;;
26965;SDS011;14522;52.068;4.414;2022-10-16T06:02:04;3.25;;;1.00;;
26965;SDS011;14522;52.068;4.414;2022-10-16T06:04:31;5.57;;;0.75;;
26965;SDS011;14522;52.068;4.414;2022-10-16T06:07:00;3.95;;;0.88;;
26965;SDS011;14522;52.068;4.414;2022-10-16T06:09:26;3.35;;;0.70;;
26965;SDS011;14522;52.068;4.414;2022-10-16T06:11:53;6.57;;;0.95;;
26965;SDS011;14522;52.068;4.414;2022-10-16T06:14:19;4.15;;;1.00;;
26965;SDS011;14522;52.068;4.414;2022-10-16T06:16:45;3.22;;;1.35;;
26965;SDS011;14522;52.068;4.414;2022-10-16T06:19:12;3.10;;;1.00;;
26965;SDS011;14522;52.068;4.414;2022-10-16T06:21:38;3.08;;;0.98;;
26965;SDS011;14522;52.068;4.414;2022-10-16T06:24:04;3.53;;;0.73;;
26965;SDS011;14522;52.068;4.414;2022-10-16T06:26:31;2.65;;;0.68;;
26965;SDS011;14522;52.068;4.414;2022-10-16T06:28:58;10.00;;;0.98;;
26965;SDS011;14522;52.068;4.414;2022-10-16T06:31:25;6.30;;;0.85;;
26965;SDS011;14522;52.068;4.414;2022-10-16T06:33:57;2.92;;;0.80;;
26965;SDS011;14522;52.068;4.414;2022-10-16T06:36:24;3.72;;;0.75;;
26965;SDS011;14522;52.068;4.414;2022-10-16T06:38:51;5.38;;;0.50;;
26965;SDS011;14522;52.068;4.414;2022-10-16T06:41:18;2.80;;;0.70;;
26965;SDS011;14522;52.068;4.414;2022-10-16T06:43:45;3.05;;;0.70;;
26965;SDS011;14522;52.068;4.414;2022-10-16T06:46:12;0.82;;;0.45;;
26965;SDS011;14522;52.068;4.414;2022-10-16T06:48:38;4.90;;;0.70;;
26965;SDS011;14522;52.068;4.414;2022-10-16T06:51:05;3.85;;;0.85;;
26965;SDS011;14522;52.068;4.414;2022-10-16T06:53:33;3.47;;;0.73;;
26965;SDS011;14522;52.068;4.414;2022-10-16T06:58:36;6.28;;;0.98;;
26965;SDS011;14522;52.068;4.414;2022-10-16T07:01:03;6.47;;;0.80;;
26965;SDS011;14522;52.068;4.414;2022-10-16T07:03:29;4.28;;;0.90;;
26965;SDS011;14522;52.068;4.414;2022-10-16T07:05:56;3.22;;;0.70;;
26965;SDS011;14522;52.068;4.414;2022-10-16T07:08:22;6.57;;;0.68;;
26965;SDS011;14522;52.068;4.414;2022-10-16T07:10:48;5.32;;;0.90;;
26965;SDS011;14522;52.068;4.414;2022-10-16T07:13:23;4.00;;;0.73;;
26965;SDS011;14522;52.068;4.414;2022-10-16T07:15:49;3.08;;;0.80;;
26965;SDS011;14522;52.068;4.414;2022-10-16T07:18:16;1.70;;;0.60;;
26965;SDS011;14522;52.068;4.414;2022-10-16T07:20:42;4.75;;;1.15;;
26965;SDS011;14522;52.068;4.414;2022-10-16T07:23:08;3.60;;;0.80;;
26965;SDS011;14522;52.068;4.414;2022-10-16T07:25:35;5.57;;;0.73;;
26965;SDS011;14522;52.068;4.414;2022-10-16T07:28:01;9.23;;;0.77;;
26965;SDS011;14522;52.068;4.414;2022-10-16T07:30:27;3.90;;;0.80;;
26965;SDS011;14522;52.068;4.414;2022-10-16T07:32:54;6.15;;;1.00;;
26965;SDS011;14522;52.068;4.414;2022-10-16T07:35:20;4.10;;;0.68;;
26965;SDS011;14522;52.068;4.414;2022-10-16T07:37:46;6.60;;;0.90;;
26965;SDS011;14522;52.068;4.414;2022-10-16T07:40:13;4.78;;;0.80;;
26965;SDS011;14522;52.068;4.414;2022-10-16T07:42:39;8.40;;;1.13;;
26965;SDS011;14522;52.068;4.414;2022-10-16T07:45:05;6.15;;;0.80;;
26965;SDS011;14522;52.068;4.414;2022-10-16T07:47:32;6.32;;;1.17;;
26965;SDS011;14522;52.068;4.414;2022-10-16T07:49:58;3.80;;;0.65;;
26965;SDS011;14522;52.068;4.414;2022-10-16T07:52:25;5.63;;;0.60;;
26965;SDS011;14522;52.068;4.414;2022-10-16T07:54:51;6.63;;;1.05;;
26965;SDS011;14522;52.068;4.414;2022-10-16T07:57:17;3.63;;;0.68;;
26965;SDS011;14522;52.068;4.414;2022-10-16T07:59:45;7.70;;;0.85;;
26965;SDS011;14522;52.068;4.414;2022-10-16T08:02:12;4.93;;;1.52;;
26965;SDS011;14522;52.068;4.414;2022-10-16T08:04:38;1.65;;;0.45;;
26965;SDS011;14522;52.068;4.414;2022-10-16T08:07:06;3.00;;;0.85;;
26965;SDS011;14522;52.068;4.414;2022-10-16T08:09:32;9.57;;;1.00;;
26965;SDS011;14522;52.068;4.414;2022-10-16T08:11:59;12.07;;;1.10;;
26965;SDS011;14522;52.068;4.414;2022-10-16T08:14:27;8.93;;;1.58;;
26965;SDS011;14522;52.068;4.414;2022-10-16T08:16:54;6.47;;;0.95;;
26965;SDS011;14522;52.068;4.414;2022-10-16T08:19:20;6.25;;;1.10;;
26965;SDS011;14522;52.068;4.414;2022-10-16T08:21:47;4.70;;;1.10;;
26965;SDS011;14522;52.068;4.414;2022-10-16T08:24:14;7.32;;;0.90;;
26965;SDS011;14522;52.068;4.414;2022-10-16T08:26:40;7.18;;;1.05;;
26965;SDS011;14522;52.068;4.414;2022-10-16T08:29:07;5.15;;;1.02;;
26965;SDS011;14522;52.068;4.414;2022-10-16T08:31:33;4.72;;;1.05;;
26965;SDS011;14522;52.068;4.414;2022-10-16T08:34:00;8.82;;;1.00;;
26965;SDS011;14522;52.068;4.414;2022-10-16T08:36:26;6.10;;;1.10;;
26965;SDS011;14522;52.068;4.414;2022-10-16T08:38:52;5.60;;;0.98;;
26965;SDS011;14522;52.068;4.414;2022-10-16T08:45:00;14.38;;;1.95;;
26965;SDS011;14522;52.068;4.414;2022-10-16T08:47:02;6.57;;;1.30;;
26965;SDS011;14522;52.068;4.414;2022-10-16T08:49:32;6.07;;;0.98;;
26965;SDS011;14522;52.068;4.414;2022-10-16T08:51:59;7.35;;;1.15;;
26965;SDS011;14522;52.068;4.414;2022-10-16T08:54:33;7.72;;;1.25;;
26965;SDS011;14522;52.068;4.414;2022-10-16T08:57:11;8.45;;;1.20;;
26965;SDS011;14522;52.068;4.414;2022-10-16T08:59:38;7.80;;;1.15;;
26965;SDS011;14522;52.068;4.414;2022-10-16T09:02:12;10.82;;;1.35;;
26965;SDS011;14522;52.068;4.414;2022-10-16T09:07:17;8.85;;;1.35;;
26965;SDS011;14522;52.068;4.414;2022-10-16T09:09:50;7.82;;;1.08;;
26965;SDS011;14522;52.068;4.414;2022-10-16T09:14:51;6.75;;;0.90;;
26965;SDS011;14522;52.068;4.414;2022-10-16T09:17:22;10.20;;;1.17;;
26965;SDS011;14522;52.068;4.414;2022-10-16T09:19:53;10.90;;;1.48;;
26965;SDS011;14522;52.068;4.414;2022-10-16T09:22:22;6.18;;;1.35;;
26965;SDS011;14522;52.068;4.414;2022-10-16T09:24:53;6.25;;;1.00;;
26965;SDS011;14522;52.068;4.414;2022-10-16T09:27:19;7.40;;;1.25;;
26965;SDS011;14522;52.068;4.414;2022-10-16T09:29:46;5.50;;;1.67;;
26965;SDS011;14522;52.068;4.414;2022-10-16T09:32:13;7.95;;;1.95;;
26965;SDS011;14522;52.068;4.414;2022-10-16T09:34:45;10.55;;;1.52;;
26965;SDS011;14522;52.068;4.414;2022-10-16T09:37:13;7.40;;;1.25;;
26965;SDS011;14522;52.068;4.414;2022-10-16T09:39:47;5.43;;;1.10;;
26965;SDS011;14522;52.068;4.414;2022-10-16T09:42:15;6.97;;;0.82;;
26965;SDS011;14522;52.068;4.414;2022-10-16T09:44:42;14.48;;;1.50;;
26965;SDS011;14522;52.068;4.414;2022-10-16T09:49:39;6.63;;;0.82;;
26965;SDS011;14522;52.068;4.414;2022-10-16T09:52:16;8.05;;;1.38;;
26965;SDS011;14522;52.068;4.414;2022-10-16T09:55:17;6.30;;;1.10;;
26965;SDS011;14522;52.068;4.414;2022-10-16T09:57:35;6.63;;;0.80;;
26965;SDS011;14522;52.068;4.414;2022-10-16T10:00:04;11.15;;;1.48;;
26965;SDS011;14522;52.068;4.414;2022-10-16T10:02:34;15.30;;;1.40;;
26965;SDS011;14522;52.068;4.414;2022-10-16T10:05:02;4.50;;;0.95;;
26965;SDS011;14522;52.068;4.414;2022-10-16T10:07:31;9.95;;;1.25;;
26965;SDS011;14522;52.068;4.414;2022-10-16T10:10:01;13.65;;;1.65;;
26965;SDS011;14522;52.068;4.414;2022-10-16T10:12:28;11.30;;;1.73;;
26965;SDS011;14522;52.068;4.414;2022-10-16T10:14:57;9.57;;;1.00;;
26965;SDS011;14522;52.068;4.414;2022-10-16T10:17:25;9.65;;;1.20;;
26965;SDS011;14522;52.068;4.414;2022-10-16T10:19:58;7.32;;;1.00;;
26965;SDS011;14522;52.068;4.414;2022-10-16T10:24:59;15.48;;;1.45;;
26965;SDS011;14522;52.068;4.414;2022-10-16T10:27:32;10.20;;;1.35;;
26965;SDS011;14522;52.068;4.414;2022-10-16T10:30:04;13.68;;;1.60;;
26965;SDS011;14522;52.068;4.414;2022-10-16T10:32:55;8.80;;;1.27;;
26965;SDS011;14522;52.068;4.414;2022-10-16T10:38:24;8.65;;;1.40;;
26965;SDS011;14522;52.068;4.414;2022-10-16T10:43:31;11.48;;;1.63;;
26965;SDS011;14522;52.068;4.414;2022-10-16T10:46:02;6.93;;;0.95;;
26965;SDS011;14522;52.068;4.414;2022-10-16T10:53:46;10.63;;;1.50;;
26965;SDS011;14522;52.068;4.414;2022-10-16T10:56:16;7.32;;;1.08;;
26965;SDS011;14522;52.068;4.414;2022-10-16T11:01:14;12.63;;;1.95;;
26965;SDS011;14522;52.068;4.414;2022-10-16T11:06:22;7.38;;;1.10;;
26965;SDS011;14522;52.068;4.414;2022-10-16T11:08:52;5.22;;;1.10;;
26965;SDS011;14522;52.068;4.414;2022-10-16T11:11:29;6.13;;;1.27;;
26965;SDS011;14522;52.068;4.414;2022-10-16T11:14:14;11.50;;;1.15;;
26965;SDS011;14522;52.068;4.414;2022-10-16T11:16:43;8.25;;;1.23;;
26965;SDS011;14522;52.068;4.414;2022-10-16T11:19:14;8.20;;;1.00;;
26965;SDS011;14522;52.068;4.414;2022-10-16T11:21:44;6.55;;;0.90;;
26965;SDS011;14522;52.068;4.414;2022-10-16T11:24:22;8.68;;;1.35;;
26965;SDS011;14522;52.068;4.414;2022-10-16T11:26:49;8.35;;;2.05;;
26965;SDS011;14522;52.068;4.414;2022-10-16T11:29:23;8.85;;;1.45;;
26965;SDS011;14522;52.068;4.414;2022-10-16T11:31:53;6.43;;;1.55;;
26965;SDS011;14522;52.068;4.414;2022-10-16T11:34:38;7.68;;;1.65;;
26965;SDS011;14522;52.068;4.414;2022-10-16T11:37:12;6.57;;;0.95;;
26965;SDS011;14522;52.068;4.414;2022-10-16T11:39:40;10.90;;;1.08;;
26965;SDS011;14522;52.068;4.414;2022-10-16T11:47:42;9.07;;;1.30;;
26965;SDS011;14522;52.068;4.414;2022-10-16T11:52:56;10.40;;;1.02;;
26965;SDS011;14522;52.068;4.414;2022-10-16T11:55:31;9.40;;;1.20;;
26965;SDS011;14522;52.068;4.414;2022-10-16T11:58:06;10.50;;;1.60;;
26965;SDS011;14522;52.068;4.414;2022-10-16T12:00:45;14.27;;;1.20;;
26965;SDS011;14522;52.068;4.414;2022-10-16T12:03:26;14.35;;;1.33;;
26965;SDS011;14522;52.068;4.414;2022-10-16T12:08:22;15.27;;;1.45;;
26965;SDS011;14522;52.068;4.414;2022-10-16T12:10:48;5.93;;;1.00;;
26965;SDS011;14522;52.068;4.414;2022-10-16T12:16:06;5.30;;;0.80;;
26965;SDS011;14522;52.068;4.414;2022-10-16T12:18:32;7.78;;;1.15;;
26965;SDS011;14522;52.068;4.414;2022-10-16T12:20:59;8.98;;;1.02;;
26965;SDS011;14522;52.068;4.414;2022-10-16T12:23:31;7.13;;;1.05;;
26965;SDS011;14522;52.068;4.414;2022-10-16T12:25:58;6.40;;;0.73;;
26965;SDS011;14522;52.068;4.414;2022-10-16T12:28:26;12.38;;;1.52;;
26965;SDS011;14522;52.068;4.414;2022-10-16T12:31:15;13.50;;;1.35;;
26965;SDS011;14522;52.068;4.414;2022-10-16T12:33:41;9.95;;;1.15;;
26965;SDS011;14522;52.068;4.414;2022-10-16T12:36:16;8.52;;;1.15;;
26965;SDS011;14522;52.068;4.414;2022-10-16T12:38:52;4.78;;;0.90;;
26965;SDS011;14522;52.068;4.414;2022-10-16T12:43:55;7.90;;;1.17;;
26965;SDS011;14522;52.068;4.414;2022-10-16T12:46:23;8.90;;;1.08;;
26965;SDS011;14522;52.068;4.414;2022-10-16T12:48:50;11.45;;;1.65;;
26965;SDS011;14522;52.068;4.414;2022-10-16T12:51:34;8.20;;;1.20;;
26965;SDS011;14522;52.068;4.414;2022-10-16T12:54:10;15.00;;;2.42;;
26965;SDS011;14522;52.068;4.414;2022-10-16T12:59:16;9.82;;;1.70;;
26965;SDS011;14522;52.068;4.414;2022-10-16T13:04:20;9.88;;;1.48;;
26965;SDS011;14522;52.068;4.414;2022-10-16T13:09:27;7.97;;;1.60;;
26965;SDS011;14522;52.068;4.414;2022-10-16T13:19:45;8.02;;;1.48;;
26965;SDS011;14522;52.068;4.414;2022-10-16T13:22:22;4.85;;;1.20;;
26965;SDS011;14522;52.068;4.414;2022-10-16T13:24:53;7.10;;;1.17;;
26965;SDS011;14522;52.068;4.414;2022-10-16T13:30:07;13.98;;;1.67;;
26965;SDS011;14522;52.068;4.414;2022-10-16T13:32:34;7.65;;;1.48;;
26965;SDS011;14522;52.068;4.414;2022-10-16T13:35:01;10.00;;;1.50;;
26965;SDS011;14522;52.068;4.414;2022-10-16T13:37:27;8.13;;;1.58;;
26965;SDS011;14522;52.068;4.414;2022-10-16T13:42:39;9.95;;;1.15;;
26965;SDS011;14522;52.068;4.414;2022-10-16T13:45:16;12.57;;;1.13;;
26965;SDS011;14522;52.068;4.414;2022-10-16T13:47:43;12.93;;;1.65;;
26965;SDS011;14522;52.068;4.414;2022-10-16T13:50:11;6.18;;;1.15;;
26965;SDS011;14522;52.068;4.414;2022-10-16T13:52:38;10.32;;;1.35;;
26965;SDS011;14522;52.068;4.414;2022-10-16T13:55:10;9.43;;;1.30;;
26965;SDS011;14522;52.068;4.414;2022-10-16T13:57:36;9.05;;;1.20;;
26965;SDS011;14522;52.068;4.414;2022-10-16T14:00:05;11.07;;;1.45;;
26965;SDS011;14522;52.068;4.414;2022-10-16T14:02:43;9.93;;;1.25;;
26965;SDS011;14522;52.068;4.414;2022-10-16T14:05:09;7.63;;;1.27;;
26965;SDS011;14522;52.068;4.414;2022-10-16T14:07:36;9.40;;;1.20;;
26965;SDS011;14522;52.068;4.414;2022-10-16T14:10:04;7.57;;;1.45;;
26965;SDS011;14522;52.068;4.414;2022-10-16T14:12:32;13.05;;;1.63;;
26965;SDS011;14522;52.068;4.414;2022-10-16T14:14:59;8.50;;;1.55;;
26965;SDS011;14522;52.068;4.414;2022-10-16T14:17:27;11.48;;;1.63;;
26965;SDS011;14522;52.068;4.414;2022-10-16T14:19:55;12.07;;;1.70;;
26965;SDS011;14522;52.068;4.414;2022-10-16T14:22:35;9.25;;;1.55;;
26965;SDS011;14522;52.068;4.414;2022-10-16T14:25:15;9.82;;;1.30;;
26965;SDS011;14522;52.068;4.414;2022-10-16T14:28:13;8.48;;;1.40;;
26965;SDS011;14522;52.068;4.414;2022-10-16T14:30:53;6.25;;;1.10;;
26965;SDS011;14522;52.068;4.414;2022-10-16T14:33:22;9.93;;;1.48;;
26965;SDS011;14522;52.068;4.414;2022-10-16T14:35:58;9.98;;;1.60;;
26965;SDS011;14522;52.068;4.414;2022-10-16T14:38:25;14.25;;;1.83;;
26965;SDS011;14522;52.068;4.414;2022-10-16T14:40:52;12.70;;;2.42;;
26965;SDS011;14522;52.068;4.414;2022-10-16T14:43:40;10.40;;;1.45;;
26965;SDS011;14522;52.068;4.414;2022-10-16T14:46:20;7.05;;;1.17;;
26965;SDS011;14522;52.068;4.414;2022-10-16T14:48:53;14.50;;;1.45;;
26965;SDS011;14522;52.068;4.414;2022-10-16T14:51:20;8.50;;;1.20;;
26965;SDS011;14522;52.068;4.414;2022-10-16T14:53:46;9.65;;;1.35;;
26965;SDS011;14522;52.068;4.414;2022-10-16T14:56:17;11.20;;;1.73;;
26965;SDS011;14522;52.068;4.414;2022-10-16T14:58:44;6.03;;;1.42;;
26965;SDS011;14522;52.068;4.414;2022-10-16T15:01:10;17.75;;;1.60;;
26965;SDS011;14522;52.068;4.414;2022-10-16T15:03:37;5.47;;;1.40;;
26965;SDS011;14522;52.068;4.414;2022-10-16T15:06:08;7.05;;;1.50;;
26965;SDS011;14522;52.068;4.414;2022-10-16T15:08:35;16.17;;;1.77;;
26965;SDS011;14522;52.068;4.414;2022-10-16T15:11:01;9.35;;;1.58;;
26965;SDS011;14522;52.068;4.414;2022-10-16T15:13:28;10.93;;;1.70;;
26965;SDS011;14522;52.068;4.414;2022-10-16T15:15:54;7.40;;;1.63;;
26965;SDS011;14522;52.068;4.414;2022-10-16T15:18:21;5.82;;;1.20;;
26965;SDS011;14522;52.068;4.414;2022-10-16T15:20:48;7.97;;;1.52;;
26965;SDS011;14522;52.068;4.414;2022-10-16T15:23:16;7.18;;;1.65;;
26965;SDS011;14522;52.068;4.414;2022-10-16T15:28:10;11.68;;;1.60;;
26965;SDS011;14522;52.068;4.414;2022-10-16T15:30:37;11.20;;;1.98;;
26965;SDS011;14522;52.068;4.414;2022-10-16T15:33:03;14.68;;;2.80;;
26965;SDS011;14522;52.068;4.414;2022-10-16T15:35:30;8.00;;;1.23;;
26965;SDS011;14522;52.068;4.414;2022-10-16T15:37:57;10.85;;;1.95;;
26965;SDS011;14522;52.068;4.414;2022-10-16T15:40:23;8.27;;;1.45;;
26965;SDS011;14522;52.068;4.414;2022-10-16T15:42:49;8.35;;;1.70;;
26965;SDS011;14522;52.068;4.414;2022-10-16T15:45:16;11.95;;;1.60;;
26965;SDS011;14522;52.068;4.414;2022-10-16T15:47:43;11.05;;;1.10;;
26965;SDS011;14522;52.068;4.414;2022-10-16T15:50:12;9.50;;;1.55;;
26965;SDS011;14522;52.068;4.414;2022-10-16T15:52:39;13.52;;;1.95;;
26965;SDS011;14522;52.068;4.414;2022-10-16T15:55:09;11.75;;;1.60;;
26965;SDS011;14522;52.068;4.414;2022-10-16T15:57:36;5.90;;;1.50;;
26965;SDS011;14522;52.068;4.414;2022-10-16T16:00:07;11.02;;;1.65;;
26965;SDS011;14522;52.068;4.414;2022-10-16T16:02:36;4.80;;;0.93;;
26965;SDS011;14522;52.068;4.414;2022-10-16T16:05:02;8.27;;;1.20;;
26965;SDS011;14522;52.068;4.414;2022-10-16T16:07:32;7.95;;;1.27;;
26965;SDS011;14522;52.068;4.414;2022-10-16T16:09:58;11.98;;;2.25;;
26965;SDS011;14522;52.068;4.414;2022-10-16T16:12:25;7.82;;;1.20;;
26965;SDS011;14522;52.068;4.414;2022-10-16T16:14:51;6.82;;;1.75;;
26965;SDS011;14522;52.068;4.414;2022-10-16T16:17:18;10.48;;;1.95;;